Radium, Kansas
Current Conditions -  °F | °C
As of 8:55 PM on Tuesday 21 Oct 2014 (Local Time) from KGBD Reporting Station
Clear Clear  
Wind Chill: 66°   Ceiling: Unl
Heat Index: 66°   Visibility: 10mi
Dew Point: 55°   Wind: 12mph
Humidity: 68%   Direction: 160°SSE
Pressure: 30"   Gusts: NA
Location:  38.1779°N, 99.1746°W
Report Text: KGBD 220155Z AUTO 16010KT 10SM CLR 19/13 A3000 RMK AO1
Loading
Personal Weather Stations






























Interactive Weather Map
Tropical Storm Tracking
New forecast layout! Learn more

10-Day Weather Forecast

Advertisements
Track Severe Weather on mobile